createdAt,value
2022-08-19T00:00:16.769Z,7.90
2022-08-19T00:05:57.625Z,8.25
2022-08-19T00:12:50.510Z,8.55
2022-08-19T00:19:44.506Z,9.00
2022-08-19T00:22:38.890Z,11.80
2022-08-19T00:25:08.275Z,9.38
2022-08-19T00:28:05.410Z,9.10
2022-08-19T00:30:39.649Z,10.73
2022-08-19T00:33:09.164Z,7.03
2022-08-19T00:35:39.675Z,8.98
2022-08-19T00:38:07.915Z,9.35
2022-08-19T00:40:37.931Z,11.80
2022-08-19T00:43:10.965Z,10.52
2022-08-19T00:45:39.127Z,9.48
2022-08-19T00:48:15.090Z,7.70
2022-08-19T00:50:51.823Z,7.75
2022-08-19T00:53:35.065Z,8.55
2022-08-19T00:56:07.346Z,8.57
2022-08-19T00:59:00.714Z,13.40
2022-08-19T01:05:56.413Z,8.20
2022-08-19T01:08:41.569Z,9.20
2022-08-19T01:12:08.682Z,10.85
2022-08-19T01:17:24.173Z,9.70
2022-08-19T01:19:57.289Z,10.30
2022-08-19T01:22:43.251Z,11.48
2022-08-19T01:25:14.993Z,14.05
2022-08-19T01:31:55.201Z,7.53
2022-08-19T01:34:25.602Z,10.48
2022-08-19T01:36:53.686Z,6.72
2022-08-19T01:39:26.981Z,9.65
2022-08-19T01:42:14.167Z,11.15
2022-08-19T01:44:42.964Z,12.90
2022-08-19T01:47:19.016Z,8.23
2022-08-19T01:49:48.111Z,11.60
2022-08-19T01:53:06.971Z,9.70
2022-08-19T01:55:40.992Z,9.60
2022-08-19T01:58:18.747Z,10.05
2022-08-19T02:00:47.473Z,8.43
2022-08-19T02:03:24.854Z,16.63
2022-08-19T02:06:00.592Z,9.57
2022-08-19T02:08:42.462Z,9.05
2022-08-19T02:11:22.650Z,9.52
2022-08-19T02:13:51.466Z,8.88
2022-08-19T02:16:21.701Z,8.60
2022-08-19T02:18:50.266Z,8.73
2022-08-19T02:21:46.459Z,8.57
2022-08-19T02:24:16.647Z,8.88
2022-08-19T02:26:49.785Z,7.32
2022-08-19T02:29:17.903Z,10.52
2022-08-19T02:31:47.989Z,9.75
2022-08-19T02:34:18.826Z,10.00
2022-08-19T02:36:51.939Z,8.73
2022-08-19T02:39:25.563Z,15.85
2022-08-19T02:41:55.030Z,9.95
2022-08-19T02:44:31.322Z,8.43
2022-08-19T02:47:00.261Z,10.18
2022-08-19T02:49:40.727Z,11.77
2022-08-19T02:52:15.051Z,8.45
2022-08-19T02:54:43.207Z,10.73
2022-08-19T02:57:18.571Z,11.35
2022-08-19T03:02:21.930Z,9.70
2022-08-19T03:05:47.947Z,9.70
2022-08-19T03:09:14.638Z,10.57
2022-08-19T03:11:42.882Z,9.85
2022-08-19T03:14:13.794Z,9.57
2022-08-19T03:17:35.773Z,7.68
2022-08-19T03:20:57.680Z,11.05
2022-08-19T03:24:16.840Z,12.10
2022-08-19T03:26:51.980Z,6.47
2022-08-19T03:29:30.294Z,9.25
2022-08-19T03:32:01.839Z,7.95
2022-08-19T03:34:46.000Z,10.07
2022-08-19T03:37:19.304Z,10.63
2022-08-19T03:39:47.440Z,10.30
2022-08-19T03:42:47.752Z,7.45
2022-08-19T03:45:14.273Z,9.27
2022-08-19T03:47:57.666Z,9.50
2022-08-19T03:50:52.844Z,8.60
2022-08-19T03:53:21.968Z,12.50
2022-08-19T03:55:50.066Z,15.13
2022-08-19T03:58:33.362Z,10.90
2022-08-19T04:01:12.666Z,10.57
2022-08-19T04:03:46.495Z,11.00
2022-08-19T04:06:19.129Z,11.98
2022-08-19T04:08:48.743Z,12.40
2022-08-19T04:15:42.741Z,8.93
2022-08-19T04:18:13.307Z,10.13
2022-08-19T04:20:49.732Z,9.18
2022-08-19T04:23:17.916Z,8.35
2022-08-19T04:25:49.348Z,8.70
2022-08-19T04:28:19.853Z,12.85
2022-08-19T04:30:56.217Z,10.27
2022-08-19T04:33:33.960Z,9.88
2022-08-19T04:36:04.332Z,10.65
2022-08-19T04:38:40.274Z,9.05
2022-08-19T04:41:26.724Z,7.88
2022-08-19T04:44:15.180Z,9.73
2022-08-19T04:46:51.134Z,13.80
2022-08-19T04:49:23.973Z,11.00
2022-08-19T04:52:16.817Z,10.38
2022-08-19T04:54:49.260Z,13.68
2022-08-19T04:57:21.314Z,11.18
2022-08-19T04:59:49.641Z,13.18
2022-08-19T05:02:19.950Z,12.57
2022-08-19T05:04:51.601Z,9.50
2022-08-19T05:07:21.808Z,9.52
2022-08-19T05:09:58.180Z,11.57
2022-08-19T05:12:29.847Z,15.15
2022-08-19T05:15:02.008Z,9.25
2022-08-19T05:17:34.885Z,7.53
2022-08-19T05:20:28.951Z,11.85
2022-08-19T05:22:57.118Z,19.95
2022-08-19T05:25:26.759Z,17.50
2022-08-19T05:27:54.941Z,20.58
2022-08-19T05:30:33.649Z,19.73
2022-08-19T05:33:14.883Z,35.53
2022-08-19T05:35:45.274Z,18.77
2022-08-19T05:38:15.463Z,15.18
2022-08-19T05:40:46.944Z,12.20
2022-08-19T05:43:16.541Z,11.18
2022-08-19T05:45:45.158Z,9.95
2022-08-19T05:48:13.911Z,11.95
2022-08-19T05:50:45.396Z,10.93
2022-08-19T05:53:17.421Z,13.38
2022-08-19T05:55:45.678Z,9.35
2022-08-19T05:58:13.906Z,10.20
2022-08-19T06:00:42.196Z,11.20
2022-08-19T06:03:12.669Z,8.93
2022-08-19T06:05:49.460Z,11.05
2022-08-19T06:08:34.269Z,11.02
2022-08-19T06:11:18.782Z,8.50
2022-08-19T06:13:52.030Z,7.10
2022-08-19T06:16:28.847Z,6.97
2022-08-19T06:18:59.273Z,9.77
2022-08-19T06:21:30.544Z,11.75
2022-08-19T06:24:00.649Z,8.05
2022-08-19T06:26:29.502Z,9.38
2022-08-19T06:28:57.635Z,7.30
2022-08-19T06:31:34.717Z,8.25
2022-08-19T06:34:08.296Z,10.07
2022-08-19T06:36:40.671Z,8.13
2022-08-19T06:39:14.539Z,6.40
2022-08-19T06:41:50.606Z,8.82
2022-08-19T06:44:20.769Z,7.90
2022-08-19T06:46:53.661Z,7.88
2022-08-19T06:49:23.839Z,8.73
2022-08-19T06:51:52.998Z,5.38
2022-08-19T06:54:22.777Z,5.05
2022-08-19T06:56:52.225Z,7.57
2022-08-19T06:59:28.301Z,11.40
2022-08-19T07:01:59.813Z,8.70
2022-08-19T07:04:32.735Z,7.28
2022-08-19T07:07:12.509Z,5.18
2022-08-19T07:09:58.363Z,8.57
2022-08-19T07:12:32.369Z,6.00
2022-08-19T07:15:00.871Z,6.82
2022-08-19T07:17:29.669Z,6.35
2022-08-19T07:20:06.968Z,10.85
2022-08-19T07:22:40.582Z,6.75
2022-08-19T07:25:14.604Z,6.90
2022-08-19T07:27:46.253Z,15.50
2022-08-19T07:30:15.684Z,6.40
2022-08-19T07:32:45.813Z,7.65
2022-08-19T07:35:14.551Z,6.75
2022-08-19T07:37:45.310Z,6.80
2022-08-19T07:40:15.400Z,4.57
2022-08-19T07:42:45.939Z,6.10
2022-08-19T07:45:14.095Z,5.45
2022-08-19T07:47:48.093Z,6.10
2022-08-19T07:50:16.791Z,4.90
2022-08-19T07:52:48.021Z,5.13
2022-08-19T07:55:40.162Z,4.50
2022-08-19T07:58:09.517Z,7.40
2022-08-19T08:00:37.635Z,7.50
2022-08-19T08:03:05.976Z,4.25
2022-08-19T08:05:51.616Z,4.95
2022-08-19T08:08:36.874Z,9.10
2022-08-19T08:11:07.747Z,12.13
2022-08-19T08:13:39.068Z,5.65
2022-08-19T08:16:10.392Z,6.70
2022-08-19T08:18:43.368Z,4.78
2022-08-19T08:21:19.307Z,6.03
2022-08-19T08:23:47.480Z,5.05
2022-08-19T08:26:19.385Z,4.75
2022-08-19T08:28:49.463Z,6.00
2022-08-19T08:31:19.620Z,5.88
2022-08-19T08:33:50.282Z,4.80
2022-08-19T08:36:19.338Z,4.28
2022-08-19T08:38:47.615Z,4.40
2022-08-19T08:41:24.961Z,14.13
2022-08-19T08:43:54.436Z,5.30
2022-08-19T08:46:31.263Z,5.07
2022-08-19T08:49:06.740Z,6.93
2022-08-19T08:54:15.222Z,4.00
2022-08-19T08:56:46.974Z,5.05
2022-08-19T08:59:21.302Z,7.45
2022-08-19T09:01:49.731Z,4.63
2022-08-19T09:04:18.455Z,7.30
2022-08-19T09:06:57.153Z,5.10
2022-08-19T09:09:33.559Z,10.57
2022-08-19T09:12:11.697Z,7.93
2022-08-19T09:14:51.200Z,9.35
2022-08-19T09:17:29.200Z,5.40
2022-08-19T09:20:05.758Z,4.32
2022-08-19T09:22:38.882Z,6.20
2022-08-19T09:25:09.137Z,7.63
2022-08-19T09:27:43.684Z,5.38
2022-08-19T09:30:16.381Z,5.32
2022-08-19T09:32:46.413Z,5.30
2022-08-19T09:35:16.839Z,6.05
2022-08-19T09:37:48.687Z,5.45
2022-08-19T09:40:17.363Z,8.48
2022-08-19T09:42:49.908Z,6.80
2022-08-19T09:45:22.780Z,7.53
2022-08-19T09:47:53.823Z,7.75
2022-08-19T09:50:23.047Z,5.53
2022-08-19T09:52:54.110Z,9.48
2022-08-19T10:00:33.706Z,7.15
2022-08-19T10:03:01.858Z,6.05
2022-08-19T10:05:54.550Z,6.40
2022-08-19T10:08:26.716Z,5.95
2022-08-19T10:10:55.956Z,12.88
2022-08-19T10:13:28.070Z,6.15
2022-08-19T10:15:58.371Z,5.82
2022-08-19T10:18:28.229Z,8.00
2022-08-19T10:21:08.637Z,5.70
2022-08-19T10:23:38.376Z,9.25
2022-08-19T10:26:07.519Z,5.15
2022-08-19T10:28:39.304Z,6.78
2022-08-19T10:31:10.090Z,6.00
2022-08-19T10:33:53.213Z,5.95
2022-08-19T10:36:24.988Z,5.70
2022-08-19T10:38:57.007Z,10.38
2022-08-19T10:41:28.921Z,4.82
2022-08-19T10:44:03.978Z,8.32
2022-08-19T10:46:34.384Z,5.65
2022-08-19T10:49:04.033Z,4.82
2022-08-19T10:52:06.640Z,5.00
2022-08-19T10:54:56.690Z,7.40
2022-08-19T10:57:46.008Z,3.78
2022-08-19T11:00:20.367Z,5.32
2022-08-19T11:02:48.676Z,8.23
2022-08-19T11:05:18.200Z,3.80
2022-08-19T11:07:47.256Z,11.65
2022-08-19T11:10:21.761Z,4.80
2022-08-19T11:12:55.158Z,8.68
2022-08-19T11:15:24.811Z,11.07
2022-08-19T11:17:55.608Z,8.40
2022-08-19T11:20:24.730Z,6.60
2022-08-19T11:22:55.123Z,4.88
2022-08-19T11:25:23.342Z,6.85
2022-08-19T11:27:53.257Z,9.25
2022-08-19T11:30:21.969Z,5.22
2022-08-19T11:32:51.511Z,7.72
2022-08-19T11:35:21.072Z,5.50
2022-08-19T11:37:49.262Z,5.38
2022-08-19T11:40:17.839Z,5.80
2022-08-19T11:42:58.546Z,9.10
2022-08-19T11:45:28.371Z,11.93
2022-08-19T11:47:58.306Z,6.90
2022-08-19T11:50:34.546Z,6.90
2022-08-19T11:53:04.961Z,10.45
2022-08-19T11:55:43.442Z,10.63
2022-08-19T11:58:19.034Z,9.77
2022-08-19T12:00:47.660Z,9.65
2022-08-19T12:03:17.492Z,12.15
2022-08-19T12:05:45.671Z,10.60
2022-08-19T12:08:14.942Z,9.00
2022-08-19T12:10:43.819Z,9.35
2022-08-19T12:13:12.262Z,8.05
2022-08-19T12:15:41.911Z,14.32
2022-08-19T12:18:11.155Z,11.98
2022-08-19T12:20:42.763Z,8.90
2022-08-19T12:23:12.472Z,12.85
2022-08-19T12:25:52.495Z,12.32
2022-08-19T12:28:21.769Z,12.18
2022-08-19T12:30:51.098Z,10.20
2022-08-19T12:33:20.553Z,13.35
2022-08-19T12:35:50.337Z,10.70
2022-08-19T12:38:18.537Z,14.88
2022-08-19T12:40:48.496Z,13.13
2022-08-19T12:43:17.810Z,12.70
2022-08-19T12:45:46.121Z,8.40
2022-08-19T12:48:33.859Z,10.10
2022-08-19T12:51:09.104Z,9.52
2022-08-19T12:53:39.108Z,10.55
2022-08-19T12:56:12.192Z,6.75
2022-08-19T12:58:48.770Z,11.43
2022-08-19T13:01:23.014Z,7.60
2022-08-19T13:03:53.293Z,9.38
2022-08-19T13:06:23.698Z,7.93
2022-08-19T13:08:55.454Z,8.70
2022-08-19T13:11:33.447Z,7.03
2022-08-19T13:14:02.806Z,6.90
2022-08-19T13:16:31.247Z,7.88
2022-08-19T13:19:00.061Z,17.15
2022-08-19T13:21:31.004Z,6.22
2022-08-19T13:23:59.604Z,14.00
2022-08-19T13:26:27.877Z,42.08
2022-08-19T13:29:13.888Z,27.25
2022-08-19T13:32:01.633Z,13.23
2022-08-19T13:34:35.083Z,13.60
2022-08-19T13:37:06.400Z,15.20
2022-08-19T13:39:35.905Z,10.90
2022-08-19T13:42:05.797Z,11.43
2022-08-19T13:44:34.561Z,13.98
2022-08-19T13:47:06.762Z,8.57
2022-08-19T13:49:35.635Z,10.65
2022-08-19T13:52:06.548Z,12.57
2022-08-19T13:54:34.771Z,8.98
2022-08-19T13:57:02.957Z,11.15
2022-08-19T13:59:31.062Z,14.73
2022-08-19T14:02:00.627Z,17.85
2022-08-19T14:04:28.986Z,10.73
2022-08-19T14:06:57.191Z,20.98
2022-08-19T14:09:26.857Z,11.50
2022-08-19T14:11:56.405Z,13.02
2022-08-19T14:14:24.600Z,9.98
2022-08-19T14:16:52.972Z,15.82
2022-08-19T14:19:22.373Z,14.77
2022-08-19T14:21:51.721Z,11.50
2022-08-19T14:24:20.091Z,17.20
2022-08-19T14:26:49.954Z,10.43
2022-08-19T14:29:18.488Z,17.25
2022-08-19T14:31:46.729Z,13.10
2022-08-19T14:34:14.935Z,14.02
2022-08-19T14:36:43.268Z,10.48
2022-08-19T14:39:11.559Z,10.73
2022-08-19T14:41:42.471Z,10.00
2022-08-19T14:44:13.492Z,14.65
2022-08-19T14:46:41.916Z,11.48
2022-08-19T14:49:19.633Z,15.48
2022-08-19T14:51:48.715Z,8.85
2022-08-19T14:54:17.011Z,17.98
2022-08-19T14:56:45.163Z,6.43
2022-08-19T14:59:14.865Z,11.32
2022-08-19T15:01:44.298Z,11.45
2022-08-19T15:04:12.756Z,14.93
2022-08-19T15:06:41.898Z,11.07
2022-08-19T15:09:10.835Z,15.25
2022-08-19T15:11:39.886Z,10.23
2022-08-19T15:14:08.092Z,11.20
2022-08-19T15:16:42.853Z,9.35
2022-08-19T15:21:39.382Z,16.05
2022-08-19T15:24:08.133Z,7.97
2022-08-19T15:26:36.417Z,16.13
2022-08-19T15:29:06.428Z,8.63
2022-08-19T15:31:38.338Z,13.88
2022-08-19T15:34:08.507Z,7.30
2022-08-19T15:36:36.843Z,7.20
2022-08-19T15:39:07.374Z,10.85
2022-08-19T15:41:36.965Z,9.95
2022-08-19T15:44:09.687Z,6.93
2022-08-19T15:46:40.061Z,10.80
2022-08-19T15:49:11.122Z,10.55
2022-08-19T15:51:40.344Z,11.57
2022-08-19T15:54:10.421Z,11.75
2022-08-19T15:57:02.457Z,14.90
2022-08-19T15:59:56.563Z,11.60
2022-08-19T16:02:53.658Z,14.98
2022-08-19T16:05:43.930Z,7.60
2022-08-19T16:08:12.362Z,12.77
2022-08-19T16:10:41.176Z,20.92
2022-08-19T16:13:10.670Z,18.02
2022-08-19T16:15:44.739Z,17.20
2022-08-19T16:18:12.934Z,10.70
2022-08-19T16:20:42.847Z,12.40
2022-08-19T16:23:11.197Z,9.93
2022-08-19T16:25:39.509Z,9.88
2022-08-19T16:28:08.792Z,13.77
2022-08-19T16:30:38.836Z,9.88
2022-08-19T16:33:07.390Z,12.50
2022-08-19T16:35:35.493Z,15.20
2022-08-19T16:38:07.049Z,16.38
2022-08-19T16:40:36.039Z,20.13
2022-08-19T16:43:06.475Z,10.23
2022-08-19T16:45:34.497Z,13.05
2022-08-19T16:48:04.385Z,16.40
2022-08-19T16:50:48.795Z,13.38
2022-08-19T16:55:57.258Z,16.75
2022-08-19T16:58:28.148Z,11.48
2022-08-19T17:01:01.905Z,11.15
2022-08-19T17:03:36.987Z,17.25
2022-08-19T17:06:16.211Z,14.88
2022-08-19T17:08:52.048Z,13.98
2022-08-19T17:11:21.474Z,22.40
2022-08-19T17:13:51.166Z,17.40
2022-08-19T17:16:22.221Z,21.35
2022-08-19T17:18:53.106Z,33.65
2022-08-19T17:21:27.589Z,23.88
2022-08-19T17:23:58.006Z,20.55
2022-08-19T17:26:27.197Z,13.68
2022-08-19T17:28:57.315Z,14.63
2022-08-19T17:31:28.105Z,9.60
2022-08-19T17:33:59.044Z,14.77
2022-08-19T17:36:29.366Z,15.50
2022-08-19T17:39:02.610Z,11.68
2022-08-19T17:41:33.055Z,11.65
2022-08-19T17:44:01.567Z,10.93
2022-08-19T17:46:30.174Z,12.30
2022-08-19T17:48:59.075Z,17.02
2022-08-19T17:51:42.065Z,7.75
2022-08-19T17:54:15.449Z,12.45
2022-08-19T17:56:44.082Z,19.33
2022-08-19T17:59:14.038Z,17.52
2022-08-19T18:01:52.508Z,15.27
2022-08-19T18:04:23.052Z,11.98
2022-08-19T18:07:12.801Z,16.02
2022-08-19T18:09:49.533Z,19.10
2022-08-19T18:12:17.970Z,19.55
2022-08-19T18:14:46.443Z,14.35
2022-08-19T18:17:19.265Z,14.10
2022-08-19T18:19:48.747Z,16.85
2022-08-19T18:22:25.271Z,17.30
2022-08-19T18:24:55.152Z,9.98
2022-08-19T18:27:23.324Z,15.70
2022-08-19T18:29:51.941Z,14.77
2022-08-19T18:32:23.555Z,14.48
2022-08-19T18:34:52.637Z,11.70
2022-08-19T18:37:21.193Z,21.10
2022-08-19T18:40:06.920Z,20.42
2022-08-19T18:45:40.677Z,15.07
2022-08-19T18:48:29.647Z,18.50
2022-08-19T18:50:59.355Z,17.08
2022-08-19T18:53:29.834Z,16.20
2022-08-19T18:55:58.088Z,16.33
2022-08-19T18:58:34.500Z,18.02
2022-08-19T19:01:11.675Z,25.55
2022-08-19T19:03:43.728Z,13.25
2022-08-19T19:06:12.816Z,16.13
2022-08-19T19:08:41.476Z,12.70
2022-08-19T19:11:10.126Z,15.15
2022-08-19T19:13:41.903Z,16.60
2022-08-19T19:16:12.640Z,11.50
2022-08-19T19:18:41.006Z,9.02
2022-08-19T19:21:10.726Z,12.35
2022-08-19T19:23:41.192Z,10.95
2022-08-19T19:26:16.192Z,11.43
2022-08-19T19:28:47.696Z,12.43
2022-08-19T19:31:19.800Z,14.85
2022-08-19T19:33:48.222Z,14.57
2022-08-19T19:36:17.382Z,12.25
2022-08-19T19:38:48.931Z,9.57
2022-08-19T19:41:21.395Z,12.85
2022-08-19T19:44:10.019Z,22.08
2022-08-19T19:46:42.654Z,16.13
2022-08-19T19:49:12.669Z,16.65
2022-08-19T19:51:41.704Z,15.57
2022-08-19T19:54:14.075Z,13.75
2022-08-19T19:56:45.589Z,13.90
2022-08-19T19:59:15.882Z,15.77
2022-08-19T20:01:46.215Z,15.40
2022-08-19T20:04:16.001Z,12.20
2022-08-19T20:06:45.072Z,14.40
2022-08-19T20:09:16.306Z,13.02
2022-08-19T20:11:50.297Z,20.58
2022-08-19T20:14:26.809Z,10.05
2022-08-19T20:16:56.483Z,13.45
2022-08-19T20:19:27.522Z,16.25
2022-08-19T20:21:57.665Z,13.10
2022-08-19T20:24:32.522Z,15.90
2022-08-19T20:27:00.813Z,15.70
2022-08-19T20:29:38.034Z,11.13
2022-08-19T20:32:07.365Z,18.25
2022-08-19T20:34:37.407Z,13.02
2022-08-19T20:37:07.929Z,15.00
2022-08-19T20:39:37.282Z,10.07
2022-08-19T20:42:05.994Z,16.58
2022-08-19T20:44:36.105Z,25.83
2022-08-19T20:47:04.451Z,22.88
2022-08-19T20:49:33.798Z,20.63
2022-08-19T20:52:07.128Z,14.75
2022-08-19T20:54:35.773Z,18.70
2022-08-19T20:57:05.565Z,17.98
2022-08-19T20:59:39.413Z,12.88
2022-08-19T21:02:07.655Z,19.42
2022-08-19T21:04:35.906Z,18.73
2022-08-19T21:07:04.511Z,15.18
2022-08-19T21:09:32.680Z,23.10
2022-08-19T21:12:05.624Z,16.67
2022-08-19T21:14:39.213Z,16.90
2022-08-19T21:17:11.999Z,17.15
2022-08-19T21:19:40.634Z,12.15
2022-08-19T21:22:09.220Z,14.50
2022-08-19T21:24:38.562Z,18.08
2022-08-19T21:27:07.207Z,15.63
2022-08-19T21:29:39.167Z,17.88
2022-08-19T21:32:08.177Z,18.95
2022-08-19T21:34:38.101Z,13.75
2022-08-19T21:37:06.374Z,26.90
2022-08-19T21:39:52.909Z,16.58
2022-08-19T21:42:21.266Z,21.70
2022-08-19T21:44:53.180Z,18.63
2022-08-19T21:47:21.722Z,16.48
2022-08-19T21:49:50.044Z,23.60
2022-08-19T21:52:22.970Z,17.35
2022-08-19T21:54:51.219Z,22.65
2022-08-19T21:57:19.540Z,19.25
2022-08-19T21:59:47.941Z,17.08
2022-08-19T22:02:21.668Z,16.45
2022-08-19T22:04:52.523Z,13.82
2022-08-19T22:07:23.570Z,15.20
2022-08-19T22:09:52.353Z,20.15
2022-08-19T22:12:24.069Z,21.15
2022-08-19T22:14:53.193Z,19.08
2022-08-19T22:17:23.545Z,13.98
2022-08-19T22:19:52.677Z,10.73
2022-08-19T22:22:24.239Z,14.70
2022-08-19T22:24:52.773Z,9.88
2022-08-19T22:27:21.094Z,15.88
2022-08-19T22:29:52.405Z,12.70
2022-08-19T22:32:26.987Z,18.92
2022-08-19T22:34:59.825Z,12.73
2022-08-19T22:37:29.698Z,13.10
2022-08-19T22:39:57.812Z,14.88
2022-08-19T22:42:31.736Z,23.65
2022-08-19T22:45:01.506Z,13.02
2022-08-19T22:47:32.357Z,15.77
2022-08-19T22:50:09.053Z,20.63
2022-08-19T22:52:51.884Z,12.32
2022-08-19T22:55:20.555Z,17.40
2022-08-19T22:57:48.657Z,17.38
2022-08-19T23:00:17.466Z,13.02
2022-08-19T23:02:51.917Z,12.23
2022-08-19T23:05:22.798Z,12.18
2022-08-19T23:07:52.524Z,12.95
2022-08-19T23:10:26.618Z,8.70
2022-08-19T23:12:57.882Z,11.30
2022-08-19T23:15:28.344Z,16.92
2022-08-19T23:18:00.388Z,12.00
2022-08-19T23:20:30.478Z,18.67
2022-08-19T23:22:59.235Z,16.20
2022-08-19T23:25:33.255Z,14.95
2022-08-19T23:28:19.228Z,16.00
2022-08-19T23:30:48.839Z,10.77
2022-08-19T23:33:26.329Z,11.00
2022-08-19T23:36:17.818Z,11.80
2022-08-19T23:38:47.928Z,13.98
2022-08-19T23:41:17.669Z,12.18
2022-08-19T23:43:46.338Z,12.00
2022-08-19T23:46:27.457Z,11.60
2022-08-19T23:48:58.125Z,13.85
2022-08-19T23:51:26.494Z,8.95
2022-08-19T23:53:55.152Z,12.38
2022-08-19T23:56:26.248Z,9.00
2022-08-19T23:58:55.200Z,9.10
